sensor_id;sensor_type;location;lat;lon;timestamp;temperature;humidity
39019;DHT22;24786;51.984;5.872;2024-01-30T00:02:15;8.00;99.90
39019;DHT22;24786;51.984;5.872;2024-01-30T00:04:41;8.00;99.90
39019;DHT22;24786;51.984;5.872;2024-01-30T00:07:06;8.00;99.90
39019;DHT22;24786;51.984;5.872;2024-01-30T00:09:32;8.00;99.90
39019;DHT22;24786;51.984;5.872;2024-01-30T00:11:58;7.90;99.90
39019;DHT22;24786;51.984;5.872;2024-01-30T00:14:23;7.90;99.90
39019;DHT22;24786;51.984;5.872;2024-01-30T00:16:50;7.90;99.90
39019;DHT22;24786;51.984;5.872;2024-01-30T00:19:15;7.90;99.90
39019;DHT22;24786;51.984;5.872;2024-01-30T00:21:41;7.90;99.90
39019;DHT22;24786;51.984;5.872;2024-01-30T00:24:06;7.90;99.90
39019;DHT22;24786;51.984;5.872;2024-01-30T00:26:32;8.00;99.90
39019;DHT22;24786;51.984;5.872;2024-01-30T00:28:57;7.90;99.90
39019;DHT22;24786;51.984;5.872;2024-01-30T00:31:24;7.80;99.90
39019;DHT22;24786;51.984;5.872;2024-01-30T00:33:49;7.80;99.90
39019;DHT22;24786;51.984;5.872;2024-01-30T00:36:15;7.80;99.90
39019;DHT22;24786;51.984;5.872;2024-01-30T00:38:40;7.80;99.90
39019;DHT22;24786;51.984;5.872;2024-01-30T00:41:06;7.80;99.90
39019;DHT22;24786;51.984;5.872;2024-01-30T00:43:31;7.80;99.90
39019;DHT22;24786;51.984;5.872;2024-01-30T00:45:57;7.80;99.90
39019;DHT22;24786;51.984;5.872;2024-01-30T00:48:23;7.80;99.90
39019;DHT22;24786;51.984;5.872;2024-01-30T00:50:48;7.70;99.90
39019;DHT22;24786;51.984;5.872;2024-01-30T00:53:14;7.70;99.90
39019;DHT22;24786;51.984;5.872;2024-01-30T00:55:39;7.70;99.90
39019;DHT22;24786;51.984;5.872;2024-01-30T00:58:05;7.70;99.90
39019;DHT22;24786;51.984;5.872;2024-01-30T01:00:30;7.70;99.90
39019;DHT22;24786;51.984;5.872;2024-01-30T01:03:00;7.70;99.90
39019;DHT22;24786;51.984;5.872;2024-01-30T01:05:25;7.70;99.90
39019;DHT22;24786;51.984;5.872;2024-01-30T01:07:51;7.70;99.90
39019;DHT22;24786;51.984;5.872;2024-01-30T01:10:16;7.60;99.90
39019;DHT22;24786;51.984;5.872;2024-01-30T01:12:42;7.60;99.90
39019;DHT22;24786;51.984;5.872;2024-01-30T01:15:08;7.60;99.90
39019;DHT22;24786;51.984;5.872;2024-01-30T01:17:35;7.70;99.90
39019;DHT22;24786;51.984;5.872;2024-01-30T01:20:01;7.60;99.90
39019;DHT22;24786;51.984;5.872;2024-01-30T01:22:27;7.60;99.90
39019;DHT22;24786;51.984;5.872;2024-01-30T01:24:52;7.60;99.90
39019;DHT22;24786;51.984;5.872;2024-01-30T01:27:18;7.60;99.90
39019;DHT22;24786;51.984;5.872;2024-01-30T01:29:43;7.60;99.90
39019;DHT22;24786;51.984;5.872;2024-01-30T01:32:09;7.60;99.90
39019;DHT22;24786;51.984;5.872;2024-01-30T01:34:34;7.60;99.90
39019;DHT22;24786;51.984;5.872;2024-01-30T01:36:59;7.60;99.90
39019;DHT22;24786;51.984;5.872;2024-01-30T01:39:25;7.60;99.90
39019;DHT22;24786;51.984;5.872;2024-01-30T01:41:51;7.50;99.90
39019;DHT22;24786;51.984;5.872;2024-01-30T01:44:17;7.50;99.90
39019;DHT22;24786;51.984;5.872;2024-01-30T01:46:42;7.50;99.90
39019;DHT22;24786;51.984;5.872;2024-01-30T01:49:08;7.50;99.90
39019;DHT22;24786;51.984;5.872;2024-01-30T01:51:34;7.40;99.90
39019;DHT22;24786;51.984;5.872;2024-01-30T01:54:04;7.50;99.90
39019;DHT22;24786;51.984;5.872;2024-01-30T01:56:30;7.50;99.90
39019;DHT22;24786;51.984;5.872;2024-01-30T01:58:58;7.40;99.90
39019;DHT22;24786;51.984;5.872;2024-01-30T02:01:25;7.40;99.90
39019;DHT22;24786;51.984;5.872;2024-01-30T02:03:51;7.50;99.90
39019;DHT22;24786;51.984;5.872;2024-01-30T02:06:16;7.40;99.90
39019;DHT22;24786;51.984;5.872;2024-01-30T02:08:42;7.50;99.90
39019;DHT22;24786;51.984;5.872;2024-01-30T02:11:08;7.50;99.90
39019;DHT22;24786;51.984;5.872;2024-01-30T02:13:35;7.50;99.90
39019;DHT22;24786;51.984;5.872;2024-01-30T02:16:01;7.60;99.90
39019;DHT22;24786;51.984;5.872;2024-01-30T02:18:26;7.50;99.90
39019;DHT22;24786;51.984;5.872;2024-01-30T02:20:53;7.60;99.90
39019;DHT22;24786;51.984;5.872;2024-01-30T02:23:19;7.60;99.90
39019;DHT22;24786;51.984;5.872;2024-01-30T02:25:45;7.60;99.90
39019;DHT22;24786;51.984;5.872;2024-01-30T02:28:14;7.60;99.90
39019;DHT22;24786;51.984;5.872;2024-01-30T02:30:39;7.60;99.90
39019;DHT22;24786;51.984;5.872;2024-01-30T02:33:05;7.60;99.90
39019;DHT22;24786;51.984;5.872;2024-01-30T02:35:30;7.50;99.90
39019;DHT22;24786;51.984;5.872;2024-01-30T02:37:56;7.60;99.90
39019;DHT22;24786;51.984;5.872;2024-01-30T02:40:21;7.50;99.90
39019;DHT22;24786;51.984;5.872;2024-01-30T02:42:47;7.50;99.90
39019;DHT22;24786;51.984;5.872;2024-01-30T02:45:12;7.40;99.90
39019;DHT22;24786;51.984;5.872;2024-01-30T02:47:38;7.40;99.90
39019;DHT22;24786;51.984;5.872;2024-01-30T02:50:04;7.40;99.90
39019;DHT22;24786;51.984;5.872;2024-01-30T02:52:29;7.40;99.90
39019;DHT22;24786;51.984;5.872;2024-01-30T02:54:55;7.40;99.90
39019;DHT22;24786;51.984;5.872;2024-01-30T02:57:20;7.40;99.90
39019;DHT22;24786;51.984;5.872;2024-01-30T02:59:46;7.40;99.90
39019;DHT22;24786;51.984;5.872;2024-01-30T03:02:11;7.40;99.90
39019;DHT22;24786;51.984;5.872;2024-01-30T03:04:37;7.30;99.90
39019;DHT22;24786;51.984;5.872;2024-01-30T03:07:02;7.30;99.90
39019;DHT22;24786;51.984;5.872;2024-01-30T03:09:28;7.30;99.90
39019;DHT22;24786;51.984;5.872;2024-01-30T03:11:54;7.30;99.90
39019;DHT22;24786;51.984;5.872;2024-01-30T03:14:19;7.30;99.90
39019;DHT22;24786;51.984;5.872;2024-01-30T03:16:45;7.30;99.90
39019;DHT22;24786;51.984;5.872;2024-01-30T03:19:10;7.20;99.90
39019;DHT22;24786;51.984;5.872;2024-01-30T03:21:36;7.20;99.90
39019;DHT22;24786;51.984;5.872;2024-01-30T03:24:01;7.20;99.90
39019;DHT22;24786;51.984;5.872;2024-01-30T03:26:26;7.20;99.90
39019;DHT22;24786;51.984;5.872;2024-01-30T03:28:52;7.10;99.90
39019;DHT22;24786;51.984;5.872;2024-01-30T03:31:17;7.00;99.90
39019;DHT22;24786;51.984;5.872;2024-01-30T03:33:43;7.00;99.90
39019;DHT22;24786;51.984;5.872;2024-01-30T03:36:09;7.00;99.90
39019;DHT22;24786;51.984;5.872;2024-01-30T03:38:34;7.00;99.90
39019;DHT22;24786;51.984;5.872;2024-01-30T03:41:00;7.00;99.90
39019;DHT22;24786;51.984;5.872;2024-01-30T03:43:25;7.00;99.90
39019;DHT22;24786;51.984;5.872;2024-01-30T03:45:51;7.00;99.90
39019;DHT22;24786;51.984;5.872;2024-01-30T03:48:17;7.10;99.90
39019;DHT22;24786;51.984;5.872;2024-01-30T03:50:42;7.10;99.90
39019;DHT22;24786;51.984;5.872;2024-01-30T03:53:08;7.00;99.90
39019;DHT22;24786;51.984;5.872;2024-01-30T03:55:33;7.10;99.90
39019;DHT22;24786;51.984;5.872;2024-01-30T03:57:58;7.00;99.90
39019;DHT22;24786;51.984;5.872;2024-01-30T04:00:24;7.00;99.90
39019;DHT22;24786;51.984;5.872;2024-01-30T04:02:49;7.00;99.90
39019;DHT22;24786;51.984;5.872;2024-01-30T04:05:16;7.00;99.90
39019;DHT22;24786;51.984;5.872;2024-01-30T04:07:42;7.10;99.90
39019;DHT22;24786;51.984;5.872;2024-01-30T04:10:08;7.10;99.90
39019;DHT22;24786;51.984;5.872;2024-01-30T04:12:33;7.10;99.90
39019;DHT22;24786;51.984;5.872;2024-01-30T04:14:59;7.00;99.90
39019;DHT22;24786;51.984;5.872;2024-01-30T04:17:24;7.00;99.90
39019;DHT22;24786;51.984;5.872;2024-01-30T04:19:50;7.00;99.90
39019;DHT22;24786;51.984;5.872;2024-01-30T04:22:15;7.00;99.90
39019;DHT22;24786;51.984;5.872;2024-01-30T04:24:41;6.90;99.90
39019;DHT22;24786;51.984;5.872;2024-01-30T04:27:06;6.90;99.90
39019;DHT22;24786;51.984;5.872;2024-01-30T04:29:32;6.90;99.90
39019;DHT22;24786;51.984;5.872;2024-01-30T04:31:59;6.90;99.90
39019;DHT22;24786;51.984;5.872;2024-01-30T04:34:24;6.90;99.90
39019;DHT22;24786;51.984;5.872;2024-01-30T04:36:50;6.90;99.90
39019;DHT22;24786;51.984;5.872;2024-01-30T04:39:15;6.90;99.90
39019;DHT22;24786;51.984;5.872;2024-01-30T04:41:41;6.90;99.90
39019;DHT22;24786;51.984;5.872;2024-01-30T04:44:06;6.90;99.90
39019;DHT22;24786;51.984;5.872;2024-01-30T04:46:32;6.90;99.90
39019;DHT22;24786;51.984;5.872;2024-01-30T04:48:59;6.80;99.90
39019;DHT22;24786;51.984;5.872;2024-01-30T04:51:25;6.90;99.90
39019;DHT22;24786;51.984;5.872;2024-01-30T04:53:50;6.80;99.90
39019;DHT22;24786;51.984;5.872;2024-01-30T04:56:16;6.80;99.90
39019;DHT22;24786;51.984;5.872;2024-01-30T04:58:41;6.80;99.90
39019;DHT22;24786;51.984;5.872;2024-01-30T05:01:07;6.90;99.90
39019;DHT22;24786;51.984;5.872;2024-01-30T05:03:33;6.90;99.90
39019;DHT22;24786;51.984;5.872;2024-01-30T05:05:59;6.90;99.90
39019;DHT22;24786;51.984;5.872;2024-01-30T05:08:24;7.00;99.90
39019;DHT22;24786;51.984;5.872;2024-01-30T05:10:49;7.00;99.90
39019;DHT22;24786;51.984;5.872;2024-01-30T05:13:15;7.00;99.90
39019;DHT22;24786;51.984;5.872;2024-01-30T05:15:40;7.00;99.90
39019;DHT22;24786;51.984;5.872;2024-01-30T05:18:06;7.10;99.90
39019;DHT22;24786;51.984;5.872;2024-01-30T05:20:31;7.10;99.90
39019;DHT22;24786;51.984;5.872;2024-01-30T05:22:57;7.10;99.90
39019;DHT22;24786;51.984;5.872;2024-01-30T05:25:22;7.20;99.90
39019;DHT22;24786;51.984;5.872;2024-01-30T05:27:48;7.20;99.90
39019;DHT22;24786;51.984;5.872;2024-01-30T05:30:14;7.40;99.90
39019;DHT22;24786;51.984;5.872;2024-01-30T05:32:40;7.30;99.90
39019;DHT22;24786;51.984;5.872;2024-01-30T05:35:05;7.30;99.90
39019;DHT22;24786;51.984;5.872;2024-01-30T05:37:33;7.30;99.90
39019;DHT22;24786;51.984;5.872;2024-01-30T05:39:58;7.40;99.90
39019;DHT22;24786;51.984;5.872;2024-01-30T05:42:24;7.40;99.90
39019;DHT22;24786;51.984;5.872;2024-01-30T05:44:50;7.40;99.90
39019;DHT22;24786;51.984;5.872;2024-01-30T05:47:15;7.40;99.90
39019;DHT22;24786;51.984;5.872;2024-01-30T05:49:41;7.50;99.90
39019;DHT22;24786;51.984;5.872;2024-01-30T05:52:07;7.50;99.90
39019;DHT22;24786;51.984;5.872;2024-01-30T05:54:32;7.50;99.90
39019;DHT22;24786;51.984;5.872;2024-01-30T05:56:58;7.60;99.90
39019;DHT22;24786;51.984;5.872;2024-01-30T05:59:24;7.50;99.90
39019;DHT22;24786;51.984;5.872;2024-01-30T06:01:49;7.60;99.90
39019;DHT22;24786;51.984;5.872;2024-01-30T06:04:15;7.60;99.90
39019;DHT22;24786;51.984;5.872;2024-01-30T06:06:41;7.60;99.90
39019;DHT22;24786;51.984;5.872;2024-01-30T06:09:06;7.60;99.90
39019;DHT22;24786;51.984;5.872;2024-01-30T06:11:34;7.60;99.90
39019;DHT22;24786;51.984;5.872;2024-01-30T06:14:00;7.60;99.90
39019;DHT22;24786;51.984;5.872;2024-01-30T06:16:25;7.60;99.90
39019;DHT22;24786;51.984;5.872;2024-01-30T06:18:55;7.60;99.90
39019;DHT22;24786;51.984;5.872;2024-01-30T06:21:20;7.60;99.90
39019;DHT22;24786;51.984;5.872;2024-01-30T06:23:46;7.60;99.90
39019;DHT22;24786;51.984;5.872;2024-01-30T06:26:11;7.70;99.90
39019;DHT22;24786;51.984;5.872;2024-01-30T06:28:37;7.70;99.90
39019;DHT22;24786;51.984;5.872;2024-01-30T06:31:02;7.70;99.90
39019;DHT22;24786;51.984;5.872;2024-01-30T06:33:27;7.80;99.90
39019;DHT22;24786;51.984;5.872;2024-01-30T06:35:53;7.70;99.90
39019;DHT22;24786;51.984;5.872;2024-01-30T06:38:19;7.70;99.90
39019;DHT22;24786;51.984;5.872;2024-01-30T06:40:44;7.70;99.90
39019;DHT22;24786;51.984;5.872;2024-01-30T06:43:10;7.80;99.90
39019;DHT22;24786;51.984;5.872;2024-01-30T06:45:35;7.80;99.90
39019;DHT22;24786;51.984;5.872;2024-01-30T06:48:01;7.80;99.90
39019;DHT22;24786;51.984;5.872;2024-01-30T06:50:26;7.80;99.90
39019;DHT22;24786;51.984;5.872;2024-01-30T06:52:52;7.80;99.90
39019;DHT22;24786;51.984;5.872;2024-01-30T06:55:18;7.90;99.90
39019;DHT22;24786;51.984;5.872;2024-01-30T06:57:43;7.90;99.90
39019;DHT22;24786;51.984;5.872;2024-01-30T07:00:09;7.90;99.90
39019;DHT22;24786;51.984;5.872;2024-01-30T07:02:34;7.90;99.90
39019;DHT22;24786;51.984;5.872;2024-01-30T07:05:00;8.00;99.90
39019;DHT22;24786;51.984;5.872;2024-01-30T07:07:25;8.00;99.90
39019;DHT22;24786;51.984;5.872;2024-01-30T07:09:51;8.00;99.90
39019;DHT22;24786;51.984;5.872;2024-01-30T07:12:24;8.00;99.90
39019;DHT22;24786;51.984;5.872;2024-01-30T07:14:51;8.00;99.90
39019;DHT22;24786;51.984;5.872;2024-01-30T07:17:16;8.00;99.90
39019;DHT22;24786;51.984;5.872;2024-01-30T07:19:42;8.00;99.90
39019;DHT22;24786;51.984;5.872;2024-01-30T07:22:08;8.00;99.90
39019;DHT22;24786;51.984;5.872;2024-01-30T07:24:33;8.00;99.90
39019;DHT22;24786;51.984;5.872;2024-01-30T07:26:59;8.00;99.90
39019;DHT22;24786;51.984;5.872;2024-01-30T07:29:24;8.10;99.90
39019;DHT22;24786;51.984;5.872;2024-01-30T07:31:50;8.00;99.90
39019;DHT22;24786;51.984;5.872;2024-01-30T07:34:15;8.00;99.90
39019;DHT22;24786;51.984;5.872;2024-01-30T07:36:41;8.00;99.90
39019;DHT22;24786;51.984;5.872;2024-01-30T07:39:06;8.10;99.90
39019;DHT22;24786;51.984;5.872;2024-01-30T07:41:32;8.10;99.90
39019;DHT22;24786;51.984;5.872;2024-01-30T07:43:58;8.10;99.90
39019;DHT22;24786;51.984;5.872;2024-01-30T07:46:23;8.10;99.90
39019;DHT22;24786;51.984;5.872;2024-01-30T07:48:48;8.10;99.90
39019;DHT22;24786;51.984;5.872;2024-01-30T07:51:14;8.10;99.90
39019;DHT22;24786;51.984;5.872;2024-01-30T07:53:42;8.10;99.90
39019;DHT22;24786;51.984;5.872;2024-01-30T07:56:08;8.10;99.90
39019;DHT22;24786;51.984;5.872;2024-01-30T07:58:33;8.20;99.90
39019;DHT22;24786;51.984;5.872;2024-01-30T08:00:59;8.20;99.90
39019;DHT22;24786;51.984;5.872;2024-01-30T08:03:25;8.20;99.90
39019;DHT22;24786;51.984;5.872;2024-01-30T08:05:51;8.20;99.90
39019;DHT22;24786;51.984;5.872;2024-01-30T08:08:16;8.30;99.90
39019;DHT22;24786;51.984;5.872;2024-01-30T08:10:42;8.30;99.90
39019;DHT22;24786;51.984;5.872;2024-01-30T08:13:07;8.30;99.90
39019;DHT22;24786;51.984;5.872;2024-01-30T08:15:34;8.30;99.90
39019;DHT22;24786;51.984;5.872;2024-01-30T08:17:59;8.40;99.90
39019;DHT22;24786;51.984;5.872;2024-01-30T08:20:25;8.40;99.90
39019;DHT22;24786;51.984;5.872;2024-01-30T08:22:51;8.50;99.90
39019;DHT22;24786;51.984;5.872;2024-01-30T08:25:16;8.50;99.90
39019;DHT22;24786;51.984;5.872;2024-01-30T08:27:41;8.50;99.90
39019;DHT22;24786;51.984;5.872;2024-01-30T08:30:07;8.60;99.90
39019;DHT22;24786;51.984;5.872;2024-01-30T08:32:33;8.60;99.90
39019;DHT22;24786;51.984;5.872;2024-01-30T08:34:59;8.60;99.90
39019;DHT22;24786;51.984;5.872;2024-01-30T08:37:24;8.70;99.90
39019;DHT22;24786;51.984;5.872;2024-01-30T08:39:50;8.70;99.90
39019;DHT22;24786;51.984;5.872;2024-01-30T08:42:15;8.80;99.90
39019;DHT22;24786;51.984;5.872;2024-01-30T08:44:43;8.80;99.90
39019;DHT22;24786;51.984;5.872;2024-01-30T08:47:09;8.80;99.90
39019;DHT22;24786;51.984;5.872;2024-01-30T08:49:34;8.90;99.90
39019;DHT22;24786;51.984;5.872;2024-01-30T08:52:00;8.90;99.90
39019;DHT22;24786;51.984;5.872;2024-01-30T08:54:25;8.90;99.90
39019;DHT22;24786;51.984;5.872;2024-01-30T08:56:51;9.00;99.90
39019;DHT22;24786;51.984;5.872;2024-01-30T08:59:18;9.00;99.90
39019;DHT22;24786;51.984;5.872;2024-01-30T09:01:44;9.10;99.90
39019;DHT22;24786;51.984;5.872;2024-01-30T09:04:09;9.00;99.90
39019;DHT22;24786;51.984;5.872;2024-01-30T09:06:35;9.10;99.90
39019;DHT22;24786;51.984;5.872;2024-01-30T09:09:00;9.10;99.90
39019;DHT22;24786;51.984;5.872;2024-01-30T09:11:26;9.10;99.90
39019;DHT22;24786;51.984;5.872;2024-01-30T09:13:51;9.20;99.90
39019;DHT22;24786;51.984;5.872;2024-01-30T09:16:17;9.20;99.90
39019;DHT22;24786;51.984;5.872;2024-01-30T09:18:42;9.30;99.90
39019;DHT22;24786;51.984;5.872;2024-01-30T09:21:08;9.20;99.90
39019;DHT22;24786;51.984;5.872;2024-01-30T09:23:33;9.30;99.90
39019;DHT22;24786;51.984;5.872;2024-01-30T09:25:59;9.30;99.90
39019;DHT22;24786;51.984;5.872;2024-01-30T09:28:24;9.30;99.90
39019;DHT22;24786;51.984;5.872;2024-01-30T09:30:50;9.40;99.90
39019;DHT22;24786;51.984;5.872;2024-01-30T09:33:15;9.40;99.90
39019;DHT22;24786;51.984;5.872;2024-01-30T09:35:41;9.40;99.90
39019;DHT22;24786;51.984;5.872;2024-01-30T09:38:07;9.40;99.90
39019;DHT22;24786;51.984;5.872;2024-01-30T09:40:32;9.50;99.90
39019;DHT22;24786;51.984;5.872;2024-01-30T09:42:58;9.50;99.90
39019;DHT22;24786;51.984;5.872;2024-01-30T09:45:25;9.50;99.90
39019;DHT22;24786;51.984;5.872;2024-01-30T09:47:51;9.50;99.90
39019;DHT22;24786;51.984;5.872;2024-01-30T09:50:17;9.60;99.90
39019;DHT22;24786;51.984;5.872;2024-01-30T09:52:43;9.60;99.90
39019;DHT22;24786;51.984;5.872;2024-01-30T09:55:09;9.60;99.90
39019;DHT22;24786;51.984;5.872;2024-01-30T09:57:34;9.60;99.90
39019;DHT22;24786;51.984;5.872;2024-01-30T10:00:01;9.60;99.90
39019;DHT22;24786;51.984;5.872;2024-01-30T10:02:27;9.70;99.90
39019;DHT22;24786;51.984;5.872;2024-01-30T10:04:52;9.70;99.90
39019;DHT22;24786;51.984;5.872;2024-01-30T10:07:18;9.70;99.90
39019;DHT22;24786;51.984;5.872;2024-01-30T10:09:44;9.70;99.90
39019;DHT22;24786;51.984;5.872;2024-01-30T10:12:09;9.80;99.90
39019;DHT22;24786;51.984;5.872;2024-01-30T10:14:41;9.90;99.90
39019;DHT22;24786;51.984;5.872;2024-01-30T10:17:09;9.80;99.90
39019;DHT22;24786;51.984;5.872;2024-01-30T10:19:36;9.90;99.90
39019;DHT22;24786;51.984;5.872;2024-01-30T10:22:02;9.90;99.90
39019;DHT22;24786;51.984;5.872;2024-01-30T10:24:27;10.00;99.90
39019;DHT22;24786;51.984;5.872;2024-01-30T10:26:54;10.00;99.90
39019;DHT22;24786;51.984;5.872;2024-01-30T10:29:20;10.10;99.90
39019;DHT22;24786;51.984;5.872;2024-01-30T10:31:45;10.00;99.90
39019;DHT22;24786;51.984;5.872;2024-01-30T10:34:11;10.10;99.90
39019;DHT22;24786;51.984;5.872;2024-01-30T10:36:39;10.20;99.90
39019;DHT22;24786;51.984;5.872;2024-01-30T10:39:05;10.10;99.90
39019;DHT22;24786;51.984;5.872;2024-01-30T10:41:31;10.10;99.90
39019;DHT22;24786;51.984;5.872;2024-01-30T10:44:08;10.20;99.90
39019;DHT22;24786;51.984;5.872;2024-01-30T10:46:33;10.20;99.90
39019;DHT22;24786;51.984;5.872;2024-01-30T10:49:00;10.30;99.90
39019;DHT22;24786;51.984;5.872;2024-01-30T10:51:26;10.30;99.90
39019;DHT22;24786;51.984;5.872;2024-01-30T10:53:52;10.30;99.90
39019;DHT22;24786;51.984;5.872;2024-01-30T10:56:19;10.40;99.90
39019;DHT22;24786;51.984;5.872;2024-01-30T10:58:45;10.50;99.90
39019;DHT22;24786;51.984;5.872;2024-01-30T11:01:12;10.50;99.90
39019;DHT22;24786;51.984;5.872;2024-01-30T11:03:38;10.60;99.90
39019;DHT22;24786;51.984;5.872;2024-01-30T11:06:03;10.60;99.90
39019;DHT22;24786;51.984;5.872;2024-01-30T11:08:31;10.60;99.90
39019;DHT22;24786;51.984;5.872;2024-01-30T11:10:57;10.70;99.90
39019;DHT22;24786;51.984;5.872;2024-01-30T11:13:26;10.80;99.90
39019;DHT22;24786;51.984;5.872;2024-01-30T11:15:52;10.80;99.90
39019;DHT22;24786;51.984;5.872;2024-01-30T11:18:28;10.90;99.90
39019;DHT22;24786;51.984;5.872;2024-01-30T11:20:56;11.00;99.90
39019;DHT22;24786;51.984;5.872;2024-01-30T11:23:22;11.00;99.90
39019;DHT22;24786;51.984;5.872;2024-01-30T11:25:47;11.10;99.90
39019;DHT22;24786;51.984;5.872;2024-01-30T11:28:14;11.20;99.90
39019;DHT22;24786;51.984;5.872;2024-01-30T11:30:40;11.20;99.90
39019;DHT22;24786;51.984;5.872;2024-01-30T11:35:35;11.20;99.90
39019;DHT22;24786;51.984;5.872;2024-01-30T11:38:01;11.20;99.90
39019;DHT22;24786;51.984;5.872;2024-01-30T11:40:27;11.20;99.90
39019;DHT22;24786;51.984;5.872;2024-01-30T11:42:53;11.20;99.90
39019;DHT22;24786;51.984;5.872;2024-01-30T11:45:19;11.20;99.90
39019;DHT22;24786;51.984;5.872;2024-01-30T11:47:45;11.20;99.90
39019;DHT22;24786;51.984;5.872;2024-01-30T11:50:10;11.30;99.90
39019;DHT22;24786;51.984;5.872;2024-01-30T11:52:36;11.30;99.90
39019;DHT22;24786;51.984;5.872;2024-01-30T11:55:02;11.40;99.90
39019;DHT22;24786;51.984;5.872;2024-01-30T11:57:28;11.40;99.90
39019;DHT22;24786;51.984;5.872;2024-01-30T11:59:53;11.60;99.90
39019;DHT22;24786;51.984;5.872;2024-01-30T12:02:18;11.60;99.90
39019;DHT22;24786;51.984;5.872;2024-01-30T12:04:44;11.60;99.90
39019;DHT22;24786;51.984;5.872;2024-01-30T12:07:10;11.60;99.90
39019;DHT22;24786;51.984;5.872;2024-01-30T12:09:35;11.60;99.90
39019;DHT22;24786;51.984;5.872;2024-01-30T12:12:01;11.60;99.90
39019;DHT22;24786;51.984;5.872;2024-01-30T12:14:26;11.60;99.90
39019;DHT22;24786;51.984;5.872;2024-01-30T12:16:52;11.50;99.90
39019;DHT22;24786;51.984;5.872;2024-01-30T12:19:21;11.50;99.90
39019;DHT22;24786;51.984;5.872;2024-01-30T12:21:47;11.50;99.90
39019;DHT22;24786;51.984;5.872;2024-01-30T12:24:12;11.60;99.90
39019;DHT22;24786;51.984;5.872;2024-01-30T12:26:38;11.60;99.90
39019;DHT22;24786;51.984;5.872;2024-01-30T12:29:03;11.70;99.90
39019;DHT22;24786;51.984;5.872;2024-01-30T12:31:31;11.70;99.90
39019;DHT22;24786;51.984;5.872;2024-01-30T12:33:59;12.00;99.90
39019;DHT22;24786;51.984;5.872;2024-01-30T12:36:24;11.90;99.90
39019;DHT22;24786;51.984;5.872;2024-01-30T12:38:50;11.90;99.90
39019;DHT22;24786;51.984;5.872;2024-01-30T12:41:17;11.90;99.90
39019;DHT22;24786;51.984;5.872;2024-01-30T12:43:43;11.80;99.90
39019;DHT22;24786;51.984;5.872;2024-01-30T12:46:09;11.60;99.90
39019;DHT22;24786;51.984;5.872;2024-01-30T12:48:34;11.50;99.90
39019;DHT22;24786;51.984;5.872;2024-01-30T12:51:00;11.40;99.90
39019;DHT22;24786;51.984;5.872;2024-01-30T12:53:25;11.30;99.90
39019;DHT22;24786;51.984;5.872;2024-01-30T12:55:51;11.20;99.90
39019;DHT22;24786;51.984;5.872;2024-01-30T12:58:16;11.20;99.90
39019;DHT22;24786;51.984;5.872;2024-01-30T13:00:42;11.10;99.90
39019;DHT22;24786;51.984;5.872;2024-01-30T13:03:09;11.10;99.90
39019;DHT22;24786;51.984;5.872;2024-01-30T13:05:34;11.10;99.90
39019;DHT22;24786;51.984;5.872;2024-01-30T13:08:00;11.00;99.90
39019;DHT22;24786;51.984;5.872;2024-01-30T13:10:25;11.00;99.90
39019;DHT22;24786;51.984;5.872;2024-01-30T13:12:51;11.00;99.90
39019;DHT22;24786;51.984;5.872;2024-01-30T13:15:16;11.00;99.90
39019;DHT22;24786;51.984;5.872;2024-01-30T13:17:42;11.00;99.90
39019;DHT22;24786;51.984;5.872;2024-01-30T13:20:09;11.10;99.90
39019;DHT22;24786;51.984;5.872;2024-01-30T13:22:34;11.10;99.90
39019;DHT22;24786;51.984;5.872;2024-01-30T13:25:00;11.00;99.90
39019;DHT22;24786;51.984;5.872;2024-01-30T13:27:26;11.00;99.90
39019;DHT22;24786;51.984;5.872;2024-01-30T13:29:51;11.10;99.90
39019;DHT22;24786;51.984;5.872;2024-01-30T13:32:16;11.00;99.90
39019;DHT22;24786;51.984;5.872;2024-01-30T13:34:42;11.00;99.90
39019;DHT22;24786;51.984;5.872;2024-01-30T13:37:08;11.00;99.90
39019;DHT22;24786;51.984;5.872;2024-01-30T13:39:34;10.90;99.90
39019;DHT22;24786;51.984;5.872;2024-01-30T13:41:59;10.80;99.90
39019;DHT22;24786;51.984;5.872;2024-01-30T13:44:24;10.70;99.90
39019;DHT22;24786;51.984;5.872;2024-01-30T13:46:50;10.60;99.90
39019;DHT22;24786;51.984;5.872;2024-01-30T13:49:15;10.50;99.90
39019;DHT22;24786;51.984;5.872;2024-01-30T13:51:41;10.40;99.90
39019;DHT22;24786;51.984;5.872;2024-01-30T13:54:07;10.30;99.90
39019;DHT22;24786;51.984;5.872;2024-01-30T13:56:33;10.20;99.90
39019;DHT22;24786;51.984;5.872;2024-01-30T13:58:59;10.10;99.90
39019;DHT22;24786;51.984;5.872;2024-01-30T14:01:26;10.00;99.90
39019;DHT22;24786;51.984;5.872;2024-01-30T14:03:51;10.00;99.90
39019;DHT22;24786;51.984;5.872;2024-01-30T14:06:17;9.90;99.90
39019;DHT22;24786;51.984;5.872;2024-01-30T14:08:43;9.90;99.90
39019;DHT22;24786;51.984;5.872;2024-01-30T14:11:08;9.90;99.90
39019;DHT22;24786;51.984;5.872;2024-01-30T14:13:33;9.80;99.90
39019;DHT22;24786;51.984;5.872;2024-01-30T14:15:59;9.80;99.90
39019;DHT22;24786;51.984;5.872;2024-01-30T14:18:25;9.80;99.90
39019;DHT22;24786;51.984;5.872;2024-01-30T14:20:53;9.80;99.90
39019;DHT22;24786;51.984;5.872;2024-01-30T14:23:19;9.70;99.90
39019;DHT22;24786;51.984;5.872;2024-01-30T14:25:45;9.80;99.90
39019;DHT22;24786;51.984;5.872;2024-01-30T14:28:10;9.70;99.90
39019;DHT22;24786;51.984;5.872;2024-01-30T14:30:36;9.80;99.90
39019;DHT22;24786;51.984;5.872;2024-01-30T14:33:01;9.80;99.90
39019;DHT22;24786;51.984;5.872;2024-01-30T14:35:27;9.70;99.90
39019;DHT22;24786;51.984;5.872;2024-01-30T14:37:52;9.80;99.90
39019;DHT22;24786;51.984;5.872;2024-01-30T14:40:18;9.80;99.90
39019;DHT22;24786;51.984;5.872;2024-01-30T14:42:45;9.80;99.90
39019;DHT22;24786;51.984;5.872;2024-01-30T14:45:10;9.80;99.90
39019;DHT22;24786;51.984;5.872;2024-01-30T14:47:36;9.70;99.90
39019;DHT22;24786;51.984;5.872;2024-01-30T14:50:02;9.80;99.90
39019;DHT22;24786;51.984;5.872;2024-01-30T14:52:29;9.80;99.90
39019;DHT22;24786;51.984;5.872;2024-01-30T14:54:54;9.80;99.90
39019;DHT22;24786;51.984;5.872;2024-01-30T14:57:20;9.70;99.90
39019;DHT22;24786;51.984;5.872;2024-01-30T14:59:45;9.60;99.90
39019;DHT22;24786;51.984;5.872;2024-01-30T15:02:11;9.60;99.90
39019;DHT22;24786;51.984;5.872;2024-01-30T15:04:36;9.60;99.90
39019;DHT22;24786;51.984;5.872;2024-01-30T15:07:02;9.50;99.90
39019;DHT22;24786;51.984;5.872;2024-01-30T15:09:27;9.50;99.90
39019;DHT22;24786;51.984;5.872;2024-01-30T15:11:53;9.50;99.90
39019;DHT22;24786;51.984;5.872;2024-01-30T15:14:18;9.40;99.90
39019;DHT22;24786;51.984;5.872;2024-01-30T15:16:44;9.40;99.90
39019;DHT22;24786;51.984;5.872;2024-01-30T15:19:12;9.40;99.90
39019;DHT22;24786;51.984;5.872;2024-01-30T15:21:38;9.30;99.90
39019;DHT22;24786;51.984;5.872;2024-01-30T15:24:03;9.30;99.90
39019;DHT22;24786;51.984;5.872;2024-01-30T15:26:29;9.30;99.90
39019;DHT22;24786;51.984;5.872;2024-01-30T15:28:54;9.30;99.90
39019;DHT22;24786;51.984;5.872;2024-01-30T15:31:20;9.20;99.90
39019;DHT22;24786;51.984;5.872;2024-01-30T15:33:45;9.30;99.90
39019;DHT22;24786;51.984;5.872;2024-01-30T15:36:11;9.20;99.90